Latest Coastal Weather Observations for Weipa

IDQ60701

Issued at 6:42 pm EST Thursday 20 February 2020 (issued every 10 minutes, with the page automatically refreshed every 10 minutes)

About coastal observations | Map of coastal stations | Coastal observations for QLD | Marine services | Other Formats
Station Details ID: 027045 Name: WEIPA AERO Lat: -12.68 Lon: 141.92 Height: 17.96 m
Data from the previous 72 hours. | See also: Recent months at Weipa
Date/Time
EST
Wind Sea
Height
m
Swell Vis
km
Cloud Weather Temp
°C
Press
hPa
Rain since
9am
mm
Dir  Spd
kts
Gust
kts
Height
m
Period
s
Dir
20/06:30pm NNE 5 7 - - - - 10 Partly cloudy - 25.4 1004.5 33.0
20/06:00pm NE 5 6 - - - - 10 Cloudy Rain 25.6 1004.7 32.2
20/05:30pm N 6 8 - - - - 10 Partly cloudy - 25.7 1004.7 31.4
20/05:25pm N 5 7 - - - - 10 Partly cloudy - 25.6 1004.8 31.2
20/05:00pm N 14 21 - - - - 1 Partly cloudy - 25.6 1004.6 28.4
20/04:56pm NNW 12 21 - - - - 2 Partly cloudy - 25.5 1004.5 24.2
20/04:30pm WNW 6 8 - - - - 9 Partly cloudy - 26.1 1004.3 17.6
20/04:05pm NNW 7 12 - - - - 6 Partly cloudy - 26.1 1004.3 14.6
20/04:00pm N 6 11 - - - - 10 Partly cloudy - 26.2 1004.2 13.4
20/03:50pm N 6 8 - - - - 10 Partly cloudy - 26.1 1004.1 13.0
20/03:30pm NNW 11 17 - - - - 4 Partly cloudy - 26.2 1004.3 11.8
20/03:13pm N 6 14 - - - - 5 Partly cloudy - 28.1 1004.2 4.2
20/03:00pm NNE 5 7 - - - - 10 Cloudy - 29.4 1003.9 1.6
20/02:30pm NNW 5 8 - - - - 10 Partly cloudy - 29.6 1004.4 1.6
20/02:00pm NW 7 10 - - - - 10 Partly cloudy - 28.9 1004.7 1.6
20/01:30pm NNW 6 9 - - - - 10 Partly cloudy - 28.2 1005.1 1.6
20/01:00pm NW 5 7 - - - - 10 Partly cloudy - 29.0 1005.4 0.8
20/12:30pm NW 6 8 - - - - 10 Partly cloudy - 28.2 1005.8 0.8
20/12:00pm NW 6 9 - - - - 10 Mostly cloudy Recent precip. 28.7 1006.1 0.6
20/11:30am NNW 12 24 - - - - - Partly cloudy - 27.6 1006.6 0.0
20/11:29am NNW 11 24 - - - - - Partly cloudy - 27.9 1006.6 0.0
20/11:00am N 8 12 - - - - 10 Partly cloudy - 30.1 1006.9 0.0
20/10:33am N 9 13 - - - - 10 Partly cloudy - 29.8 1007.0 0.0
20/10:30am NNE 9 13 - - - - 10 Partly cloudy - 30.2 1007.0 0.0
20/10:13am N 10 13 - - - - 4 Partly cloudy - 29.2 1007.1 0.0
20/10:00am N 8 12 - - - - 10 Partly cloudy - 29.4 1007.0 0.0
20/09:56am N 9 13 - - - - 10 Partly cloudy - 29.4 1007.1 0.0
20/09:30am NNE 7 11 - - - - 10 Partly cloudy - 28.5 1007.2 0.0
20/09:00am NE 9 13 - - - - 10 Cloudy - 27.7 1007.1 0.2
20/08:30am NE 6 8 - - - - 10 Partly cloudy - 26.8 1006.9 0.2
20/08:00am NNE 6 8 - - - - 10 Cloudy - 26.1 1006.6 0.2
20/07:30am NNE 5 7 - - - - 10 Cloudy - 25.5 1006.3 0.2
20/07:00am NNE 3 5 - - - - 10 Partly cloudy - 25.1 1005.8 0.2
20/06:57am N 3 4 - - - - 10 Partly cloudy - 25.0 1005.7 0.2
20/06:30am CALM 0 0 - - - - 10 - - 25.0 1005.1 0.2
20/06:00am NNE 4 5 - - - - 10 Cloudy Showers 25.1 1004.6 0.2
20/05:30am NE 3 6 - - - - 10 - - 25.2 1004.2 0.2
20/05:00am NE 4 4 - - - - 10 Partly cloudy - 25.2 1004.2 0.2
20/04:30am NE 2 4 - - - - 10 Partly cloudy - 25.3 1004.1 0.2
20/04:00am N 6 8 - - - - 10 - - 25.5 1004.1 0.2
20/03:30am NNW 4 6 - - - - 10 Partly cloudy - 25.9 1004.2 0.2
20/03:00am N 4 6 - - - - 10 Cloudy - 26.0 1004.6 0.2
20/02:30am NNE 5 6 - - - - 10 Partly cloudy - 26.0 1004.8 0.2
20/02:00am NNE 6 8 - - - - 10 Partly cloudy - 26.1 1005.4 0.2
20/01:30am NNE 5 7 - - - - 10 - - 26.2 1005.6 0.2
20/01:00am NE 5 8 - - - - 10 - - 26.3 1006.1 0.2
20/12:30am ENE 4 5 - - - - 10 - - 26.5 1006.8 0.2
20/12:00am ENE 5 7 - - - - 10 Mostly cloudy - 26.7 1007.1 0.2
 
Date/Time
EST
Wind Sea
Height
m
Swell Vis
km
Cloud Weather Temp
°C
Press
hPa
Rain since
9am
mm
Dir  Spd
kts
Gust
kts
Height
m
Period
s
Dir
19/11:30pm ENE 5 7 - - - - 10 - - 26.9 1007.2 0.2
19/11:00pm NE 3 5 - - - - 10 - - 27.1 1007.6 0.2
19/10:30pm NE 3 5 - - - - 10 Partly cloudy - 27.3 1007.6 0.2
19/10:00pm NE 4 6 - - - - 10 Partly cloudy - 27.4 1007.3 0.2
19/09:30pm NE 4 5 - - - - 10 Partly cloudy - 27.4 1006.5 0.2
19/09:00pm NNE 3 5 - - - - 10 - - 27.5 1006.0 0.2
19/08:30pm N 4 5 - - - - 10 - - 27.7 1005.8 0.2
19/08:00pm NNW 4 5 - - - - 10 - - 28.0 1005.3 0.2
19/07:30pm NNW 4 6 - - - - 10 - - 28.3 1004.8 0.2
19/07:00pm NNW 5 6 - - - - 10 Partly cloudy - 28.6 1004.5 0.2
19/06:30pm NNW 4 5 - - - - 10 - - 29.1 1004.0 0.2
19/06:00pm NNW 5 6 - - - - 10 Mostly cloudy - 29.2 1003.8 0.2
19/05:30pm NW 6 8 - - - - 10 - - 29.2 1003.4 0.2
19/05:00pm W 5 8 - - - - 10 - - 29.2 1003.6 0.2
19/04:30pm WNW 8 11 - - - - 10 - - 29.6 1004.0 0.2
19/04:00pm WNW 8 13 - - - - 10 - - 29.9 1004.0 0.2
19/03:30pm W 11 16 - - - - 10 Partly cloudy - 29.9 1003.9 0.2
19/03:00pm W 8 13 - - - - 10 Mostly clear - 30.3 1003.6 0.2
19/02:30pm WNW 9 15 - - - - 10 Partly cloudy - 30.5 1003.8 0.2
19/02:00pm W 6 9 - - - - 10 - - 29.7 1004.0 0.2
19/01:30pm WNW 5 7 - - - - 10 Partly cloudy - 29.1 1004.3 0.2
19/01:00pm W 5 9 - - - - 10 Partly cloudy - 27.0 1005.1 0.2
19/12:30pm NNW 9 13 - - - - 10 Partly cloudy - 30.0 1005.3 0.2
19/12:00pm WNW 5 7 - - - - 10 Cloudy Rain 29.5 1005.7 0.2
19/11:30am WNW 3 6 - - - - 10 Partly cloudy - 30.0 1006.3 0.2
19/11:00am N 5 7 - - - - 10 Partly cloudy - 29.4 1006.7 0.2
19/10:30am N 3 6 - - - - 10 - - 29.3 1007.1 0.0
19/10:00am NNE 4 6 - - - - 10 - - 28.3 1007.2 0.0
19/09:30am NNE 6 7 - - - - 10 - - 27.5 1007.1 0.0
19/09:00am NNE 6 7 - - - - 10 Cloudy - 27.0 1006.8 11.8
19/08:30am N 5 6 - - - - 10 Partly cloudy - 26.2 1006.7 11.8
19/08:00am NE 4 6 - - - - 10 Partly cloudy - 26.0 1006.4 11.8
19/07:30am NNE 4 6 - - - - 10 Partly cloudy - 25.6 1006.4 11.8
19/07:00am NE 3 4 - - - - 10 - - 25.4 1006.0 11.8
19/06:30am ENE 3 4 - - - - 10 - - 25.4 1005.9 11.8
19/06:00am NE 4 4 - - - - 10 Cloudy - 25.3 1005.6 11.8
19/05:30am CALM 0 4 - - - - 10 - - 25.3 1005.3 11.8
19/05:00am CALM 0 0 - - - - 10 Partly cloudy - 25.3 1004.7 11.8
19/04:30am NNW 3 4 - - - - 10 Partly cloudy - 25.3 1004.6 11.8
19/04:00am WNW 3 4 - - - - 10 - - 25.2 1004.5 11.8
19/03:30am SE 3 5 - - - - 10 Partly cloudy - 25.2 1004.9 11.8
19/03:27am SE 4 5 - - - - 10 Partly cloudy - 25.2 1004.8 11.8
19/03:13am WSW 4 5 - - - - 3 Partly cloudy - 25.1 1004.9 11.6
19/03:00am W 4 5 - - - - 3 Cloudy Rain 25.4 1005.2 8.6
19/02:52am WNW 5 8 - - - - 5 Partly cloudy - 25.8 1005.6 7.4
19/02:48am W 6 9 - - - - 10 Partly cloudy - 25.9 1005.8 6.6
19/02:47am W 6 9 - - - - 10 Partly cloudy - 25.9 1005.8 6.6
19/02:37am W 5 9 - - - - 10 Partly cloudy - 25.9 1005.8 6.6
19/02:30am SSW 1 5 - - - - 10 Partly cloudy - 26.2 1005.9 6.6
19/02:22am E 2 6 - - - - 10 Partly cloudy - 26.3 1005.9 6.6
19/02:00am SSW 4 5 - - - - 10 Partly cloudy - 26.3 1006.3 6.6
19/01:30am SSE 4 6 - - - - 9 Partly cloudy - 26.4 1006.3 6.4
19/01:16am SSW 3 5 - - - - 10 Partly cloudy - 26.4 1006.7 6.0
19/01:00am ESE 4 5 - - - - 10 Partly cloudy - 26.2 1006.8 6.0
19/12:30am ESE 5 5 - - - - 10 Partly cloudy - 26.3 1007.1 6.0
19/12:00am ESE 5 6 - - - - 10 Cloudy - 26.4 1007.2 6.0
 
Date/Time
EST
Wind Sea
Height
m
Swell Vis
km
Cloud Weather Temp
°C
Press
hPa
Rain since
9am
mm
Dir  Spd
kts
Gust
kts
Height
m
Period
s
Dir
18/11:30pm ESE 4 5 - - - - 10 - - 26.4 1007.2 6.0
18/11:00pm ENE 4 5 - - - - 10 - - 26.4 1007.2 6.0
18/10:30pm SE 5 6 - - - - 10 Partly cloudy - 26.3 1007.0 6.0
18/10:00pm CALM 0 0 - - - - 10 - - 26.4 1006.8 6.0
18/09:30pm ESE 5 6 - - - - 10 Partly cloudy - 26.4 1006.4 6.0
18/09:00pm E 5 7 - - - - 10 Partly cloudy - 26.6 1005.8 6.0
18/08:30pm ENE 5 5 - - - - 10 Partly cloudy - 27.1 1005.7 6.0
18/08:00pm NNE 6 7 - - - - 10 Partly cloudy - 27.4 1005.7 6.0
18/07:30pm NNW 5 8 - - - - 10 Partly cloudy - 27.5 1005.5 6.0
18/07:00pm N 3 5 - - - - 10 Partly cloudy - 27.1 1005.0 6.0
18/06:56pm N 4 6 - - - - 10 Partly cloudy - 26.8 1005.0 6.0
18/06:30pm NW 12 19 - - - - 6 Partly cloudy - 26.7 1004.9 3.4
18/06:22pm NNW 9 19 - - - - 9 Partly cloudy - 27.4 1004.9 2.2
18/06:00pm W 5 7 - - - - 10 Cloudy - 30.0 1004.3 0.0
18/05:30pm WNW 7 11 - - - - 10 Partly cloudy - 30.5 1004.0 0.0
18/05:00pm W 9 13 - - - - 10 Partly cloudy - 29.8 1004.0 0.0
18/04:30pm WNW 8 13 - - - - 10 Partly cloudy - 30.9 1004.2 0.0
18/04:00pm WNW 10 14 - - - - 10 Partly cloudy - 30.9 1003.7 0.0
18/03:30pm WNW 7 11 - - - - 10 Partly cloudy - 31.2 1003.9 0.0
18/03:00pm NW 12 16 - - - - 10 Partly cloudy - 31.6 1004.1 0.0
18/02:30pm NW 10 17 - - - - 10 Partly cloudy - 31.7 1004.7 0.0
18/02:00pm NW 12 17 - - - - 10 Partly cloudy - 31.6 1005.4 0.0
18/01:30pm WNW 9 13 - - - - 10 - - 32.2 1005.2 0.0
18/01:00pm NW 9 13 - - - - 10 - - 32.0 1006.0 0.0
18/12:30pm NW 9 12 - - - - 10 - - 31.8 1006.5 0.0
18/12:00pm WNW 7 10 - - - - 10 - - 31.1 1007.1 0.0
18/11:30am NNW 10 14 - - - - 10 Partly cloudy - 30.3 1007.4 0.0
18/11:00am WNW 7 11 - - - - 10 Partly cloudy - 31.2 1007.6 0.0
18/10:30am NW 5 10 - - - - 10 Partly cloudy - 30.3 1008.0 0.0
18/10:00am NNW 2 5 - - - - 10 Partly cloudy - 29.7 1008.3 0.0
18/09:30am ENE 1 3 - - - - 10 - - 29.0 1008.5 0.0
18/09:00am CALM 0 0 - - - - 10 Cloudy - 28.5 1008.7 1.8
18/08:53am CALM 0 0 - - - - 10 Partly cloudy - 28.3 1008.7 1.8
18/08:37am SSE 3 4 - - - - 10 Partly cloudy - 27.4 1008.6 1.8
18/08:30am S 3 4 - - - - 10 Partly cloudy - 27.1 1008.5 1.8
18/08:00am S 3 4 - - - - 10 Partly cloudy - 26.6 1008.2 1.8
18/07:30am NE 4 5 - - - - 10 - - 26.1 1007.5 1.8
18/07:00am E 4 6 - - - - 10 - - 25.9 1007.3 1.8
18/06:30am NNE 5 7 - - - - 10 Partly cloudy - 25.8 1007.2 1.8
18/06:00am NE 5 7 - - - - 10 Cloudy - 25.7 1006.8 1.8
18/05:30am E 4 5 - - - - 10 - - 25.6 1006.6 1.8
18/05:00am NE 4 5 - - - - 10 - - 25.6 1006.3 1.8
18/04:30am ENE 4 5 - - - - 10 - - 25.6 1006.5 1.8
18/04:00am E 3 4 - - - - 10 - - 25.7 1006.8 1.8
18/03:30am N 2 4 - - - - 10 - - 25.5 1006.9 1.8
18/03:00am S 1 4 - - - - 10 Partly cloudy - 25.4 1007.0 1.8
18/02:30am ENE 4 5 - - - - 10 Partly cloudy - 25.5 1007.0 1.8
18/02:00am E 4 4 - - - - 10 Partly cloudy - 25.4 1007.3 1.8
18/01:30am ESE 3 4 - - - - 10 - - 25.4 1007.4 1.8
18/01:00am ESE 5 6 - - - - 10 - - 25.4 1007.4 1.8
18/12:30am E 3 4 - - - - 10 - - 25.6 1008.0 1.8
18/12:00am SSE 3 6 - - - - 10 Mostly cloudy Rain 25.5 1008.6 1.6
 
Date/Time
EST
Wind Sea
Height
m
Swell Vis
km
Cloud Weather Temp
°C
Press
hPa
Rain since
9am
mm
Dir  Spd
kts
Gust
kts
Height
m
Period
s
Dir
17/11:44pm SW 6 9 - - - - 10 Partly cloudy - 25.9 1009.1 1.6
17/11:32pm SW 4 11 - - - - 10 Partly cloudy - 26.7 1009.4 1.6
17/11:30pm SSW 4 5 - - - - 10 Partly cloudy - 26.9 1009.3 1.6
17/11:00pm SSW 3 5 - - - - 10 Partly cloudy - 26.8 1009.2 1.6
17/10:30pm ESE 4 6 - - - - 10 Partly cloudy - 26.8 1008.6 1.6
17/10:00pm E 4 6 - - - - 10 - - 27.0 1008.1 1.6
17/09:30pm ENE 4 6 - - - - 10 - - 27.2 1008.0 1.6
17/09:00pm ENE 5 6 - - - - 10 - - 27.4 1007.9 1.6
17/08:30pm E 5 6 - - - - 10 - - 27.7 1008.0 1.6
17/08:00pm N 4 5 - - - - 10 - - 28.6 1007.5 1.6
17/07:30pm N 3 4 - - - - 10 - - 28.9 1007.1 1.6
17/07:00pm WNW 4 6 - - - - 10 - - 29.0 1006.5 1.6

Other formats

Comma delimited format used in spreadsheet applications
http://www.bom.gov.au/fwo/IDQ60701/IDQ60701.94170.axf

JavaScript Object Notation format (JSON) in row-major order
http://www.bom.gov.au/fwo/IDQ60701/IDQ60701.94170.json

Data quality

Most of these data are generated automatically and are frequently updated. Quality checks on data are not normally performed. It is possible for incorrect values to appear. Refer to information at About Latest Weather Observations and please check the disclaimer before using these data.